sensor_id;sensor_type;location;lat;lon;timestamp;temperature;humidity
11736;DHT22;5924;51.398;7.088;2022-07-29T00:02:25;17.30;99.90
11736;DHT22;5924;51.398;7.088;2022-07-29T00:04:51;17.30;99.90
11736;DHT22;5924;51.398;7.088;2022-07-29T00:07:17;17.30;99.90
11736;DHT22;5924;51.398;7.088;2022-07-29T00:09:43;17.30;1.00
11736;DHT22;5924;51.398;7.088;2022-07-29T00:12:09;17.30;1.00
11736;DHT22;5924;51.398;7.088;2022-07-29T00:14:34;17.30;1.00
11736;DHT22;5924;51.398;7.088;2022-07-29T00:17:00;17.30;1.00
11736;DHT22;5924;51.398;7.088;2022-07-29T00:19:26;17.20;1.00
11736;DHT22;5924;51.398;7.088;2022-07-29T00:21:51;17.20;1.00
11736;DHT22;5924;51.398;7.088;2022-07-29T00:24:17;17.20;97.30
11736;DHT22;5924;51.398;7.088;2022-07-29T00:26:43;17.20;99.90
11736;DHT22;5924;51.398;7.088;2022-07-29T00:29:08;17.10;99.90
11736;DHT22;5924;51.398;7.088;2022-07-29T00:31:34;17.10;1.00
11736;DHT22;5924;51.398;7.088;2022-07-29T00:33:59;17.00;1.00
11736;DHT22;5924;51.398;7.088;2022-07-29T00:36:25;16.90;99.90
11736;DHT22;5924;51.398;7.088;2022-07-29T00:38:51;16.90;99.90
11736;DHT22;5924;51.398;7.088;2022-07-29T00:41:17;16.90;99.90
11736;DHT22;5924;51.398;7.088;2022-07-29T00:43:44;16.90;1.00
11736;DHT22;5924;51.398;7.088;2022-07-29T00:46:10;16.90;1.00
11736;DHT22;5924;51.398;7.088;2022-07-29T00:48:35;16.80;99.90
11736;DHT22;5924;51.398;7.088;2022-07-29T00:51:03;16.80;1.00
11736;DHT22;5924;51.398;7.088;2022-07-29T00:53:30;16.80;1.00
11736;DHT22;5924;51.398;7.088;2022-07-29T00:55:56;17.90;1.00
11736;DHT22;5924;51.398;7.088;2022-07-29T00:58:23;16.70;99.90
11736;DHT22;5924;51.398;7.088;2022-07-29T01:00:49;16.70;1.00
11736;DHT22;5924;51.398;7.088;2022-07-29T01:03:16;16.70;99.90
11736;DHT22;5924;51.398;7.088;2022-07-29T01:05:43;16.70;99.90
11736;DHT22;5924;51.398;7.088;2022-07-29T01:08:11;16.70;99.90
11736;DHT22;5924;51.398;7.088;2022-07-29T01:10:38;16.60;99.90
11736;DHT22;5924;51.398;7.088;2022-07-29T01:13:05;16.60;99.90
11736;DHT22;5924;51.398;7.088;2022-07-29T01:15:33;16.60;1.00
11736;DHT22;5924;51.398;7.088;2022-07-29T01:18:11;16.50;1.00
11736;DHT22;5924;51.398;7.088;2022-07-29T01:21:02;16.50;1.00
11736;DHT22;5924;51.398;7.088;2022-07-29T01:29:55;16.50;1.00
11736;DHT22;5924;51.398;7.088;2022-07-29T01:32:28;16.40;1.00
11736;DHT22;5924;51.398;7.088;2022-07-29T01:35:15;16.40;99.00
11736;DHT22;5924;51.398;7.088;2022-07-29T01:37:43;16.40;99.90
11736;DHT22;5924;51.398;7.088;2022-07-29T01:43:10;16.30;99.90
11736;DHT22;5924;51.398;7.088;2022-07-29T01:45:57;16.30;99.90
11736;DHT22;5924;51.398;7.088;2022-07-29T01:48:40;16.30;99.90
11736;DHT22;5924;51.398;7.088;2022-07-29T01:51:20;16.30;99.90
11736;DHT22;5924;51.398;7.088;2022-07-29T01:54:01;16.30;99.90
11736;DHT22;5924;51.398;7.088;2022-07-29T01:56:29;17.70;99.90
11736;DHT22;5924;51.398;7.088;2022-07-29T01:58:58;16.30;1.00
11736;DHT22;5924;51.398;7.088;2022-07-29T02:01:25;16.30;1.00
11736;DHT22;5924;51.398;7.088;2022-07-29T02:03:53;16.30;1.00
11736;DHT22;5924;51.398;7.088;2022-07-29T02:06:21;16.30;1.00
11736;DHT22;5924;51.398;7.088;2022-07-29T02:08:49;16.30;1.00
11736;DHT22;5924;51.398;7.088;2022-07-29T02:11:15;16.40;1.00
11736;DHT22;5924;51.398;7.088;2022-07-29T02:13:41;16.40;99.90
11736;DHT22;5924;51.398;7.088;2022-07-29T02:16:08;16.40;99.90
11736;DHT22;5924;51.398;7.088;2022-07-29T02:18:36;16.40;99.90
11736;DHT22;5924;51.398;7.088;2022-07-29T02:21:03;16.30;99.90
11736;DHT22;5924;51.398;7.088;2022-07-29T02:23:31;16.30;99.90
11736;DHT22;5924;51.398;7.088;2022-07-29T02:25:59;16.30;99.90
11736;DHT22;5924;51.398;7.088;2022-07-29T02:28:29;16.30;1.00
11736;DHT22;5924;51.398;7.088;2022-07-29T02:30:58;16.30;1.00
11736;DHT22;5924;51.398;7.088;2022-07-29T02:33:25;16.30;1.00
11736;DHT22;5924;51.398;7.088;2022-07-29T02:35:52;16.20;1.00
11736;DHT22;5924;51.398;7.088;2022-07-29T02:38:18;16.20;1.00
11736;DHT22;5924;51.398;7.088;2022-07-29T02:41:07;16.20;1.00
11736;DHT22;5924;51.398;7.088;2022-07-29T02:43:35;16.20;1.00
11736;DHT22;5924;51.398;7.088;2022-07-29T02:46:04;16.20;1.00
11736;DHT22;5924;51.398;7.088;2022-07-29T02:48:38;16.20;1.00
11736;DHT22;5924;51.398;7.088;2022-07-29T02:51:18;16.30;1.00
11736;DHT22;5924;51.398;7.088;2022-07-29T02:53:49;16.30;1.00
11736;DHT22;5924;51.398;7.088;2022-07-29T02:56:17;16.30;1.00
11736;DHT22;5924;51.398;7.088;2022-07-29T02:58:51;16.30;1.00
11736;DHT22;5924;51.398;7.088;2022-07-29T03:01:22;16.30;1.00
11736;DHT22;5924;51.398;7.088;2022-07-29T03:03:50;16.30;1.00
11736;DHT22;5924;51.398;7.088;2022-07-29T03:06:18;16.30;1.00
11736;DHT22;5924;51.398;7.088;2022-07-29T03:08:44;16.30;1.00
11736;DHT22;5924;51.398;7.088;2022-07-29T03:11:11;16.30;1.00
11736;DHT22;5924;51.398;7.088;2022-07-29T03:13:37;16.30;1.00
11736;DHT22;5924;51.398;7.088;2022-07-29T03:16:04;16.30;1.00
11736;DHT22;5924;51.398;7.088;2022-07-29T03:18:31;16.30;1.00
11736;DHT22;5924;51.398;7.088;2022-07-29T03:20:57;16.30;1.00
11736;DHT22;5924;51.398;7.088;2022-07-29T03:23:23;16.30;1.00
11736;DHT22;5924;51.398;7.088;2022-07-29T03:25:50;16.30;90.40
11736;DHT22;5924;51.398;7.088;2022-07-29T03:28:15;16.30;99.90
11736;DHT22;5924;51.398;7.088;2022-07-29T03:30:41;16.30;99.90
11736;DHT22;5924;51.398;7.088;2022-07-29T03:33:07;16.30;99.90
11736;DHT22;5924;51.398;7.088;2022-07-29T03:35:32;16.30;73.40
11736;DHT22;5924;51.398;7.088;2022-07-29T03:37:58;16.40;1.00
11736;DHT22;5924;51.398;7.088;2022-07-29T03:40:30;16.40;1.00
11736;DHT22;5924;51.398;7.088;2022-07-29T03:42:59;16.40;1.00
11736;DHT22;5924;51.398;7.088;2022-07-29T03:45:26;16.50;1.00
11736;DHT22;5924;51.398;7.088;2022-07-29T03:47:55;16.50;1.00
11736;DHT22;5924;51.398;7.088;2022-07-29T03:50:22;16.50;1.00
11736;DHT22;5924;51.398;7.088;2022-07-29T03:52:49;16.50;1.00
11736;DHT22;5924;51.398;7.088;2022-07-29T03:55:15;16.50;1.00
11736;DHT22;5924;51.398;7.088;2022-07-29T03:57:41;16.50;1.00
11736;DHT22;5924;51.398;7.088;2022-07-29T04:00:09;16.50;99.90
11736;DHT22;5924;51.398;7.088;2022-07-29T04:02:35;16.60;99.90
11736;DHT22;5924;51.398;7.088;2022-07-29T04:05:01;16.50;99.90
11736;DHT22;5924;51.398;7.088;2022-07-29T04:07:27;16.50;99.90
11736;DHT22;5924;51.398;7.088;2022-07-29T04:09:53;16.60;99.90
11736;DHT22;5924;51.398;7.088;2022-07-29T04:12:18;15.20;99.90
11736;DHT22;5924;51.398;7.088;2022-07-29T04:14:46;16.50;1.00
11736;DHT22;5924;51.398;7.088;2022-07-29T04:17:12;16.50;1.00
11736;DHT22;5924;51.398;7.088;2022-07-29T04:19:38;16.60;1.00
11736;DHT22;5924;51.398;7.088;2022-07-29T04:22:03;17.90;1.00
11736;DHT22;5924;51.398;7.088;2022-07-29T04:24:29;16.60;1.00
11736;DHT22;5924;51.398;7.088;2022-07-29T04:26:55;16.60;99.90
11736;DHT22;5924;51.398;7.088;2022-07-29T04:29:20;16.60;99.90
11736;DHT22;5924;51.398;7.088;2022-07-29T04:31:46;16.60;1.00
11736;DHT22;5924;51.398;7.088;2022-07-29T04:34:12;16.60;49.50
11736;DHT22;5924;51.398;7.088;2022-07-29T04:36:37;16.60;98.30
11736;DHT22;5924;51.398;7.088;2022-07-29T04:39:04;16.60;1.00
11736;DHT22;5924;51.398;7.088;2022-07-29T04:41:29;16.60;1.00
11736;DHT22;5924;51.398;7.088;2022-07-29T04:43:56;16.60;1.00
11736;DHT22;5924;51.398;7.088;2022-07-29T04:46:21;16.60;1.00
11736;DHT22;5924;51.398;7.088;2022-07-29T04:48:48;16.60;1.00
11736;DHT22;5924;51.398;7.088;2022-07-29T04:51:15;16.60;1.00
11736;DHT22;5924;51.398;7.088;2022-07-29T04:53:41;16.60;1.00
11736;DHT22;5924;51.398;7.088;2022-07-29T04:56:06;14.90;1.00
11736;DHT22;5924;51.398;7.088;2022-07-29T04:58:34;16.60;1.00
11736;DHT22;5924;51.398;7.088;2022-07-29T05:01:00;16.60;1.00
11736;DHT22;5924;51.398;7.088;2022-07-29T05:03:26;16.60;1.00
11736;DHT22;5924;51.398;7.088;2022-07-29T05:05:51;16.60;1.00
11736;DHT22;5924;51.398;7.088;2022-07-29T05:08:17;16.60;1.00
11736;DHT22;5924;51.398;7.088;2022-07-29T05:10:43;16.60;1.00
11736;DHT22;5924;51.398;7.088;2022-07-29T05:13:08;16.60;99.90
11736;DHT22;5924;51.398;7.088;2022-07-29T05:15:35;16.60;99.90
11736;DHT22;5924;51.398;7.088;2022-07-29T05:18:01;16.50;99.90
11736;DHT22;5924;51.398;7.088;2022-07-29T05:20:27;16.50;99.90
11736;DHT22;5924;51.398;7.088;2022-07-29T05:22:58;16.50;99.90
11736;DHT22;5924;51.398;7.088;2022-07-29T05:25:24;16.50;99.90
11736;DHT22;5924;51.398;7.088;2022-07-29T05:27:50;16.50;99.90
11736;DHT22;5924;51.398;7.088;2022-07-29T05:30:16;16.50;99.90
11736;DHT22;5924;51.398;7.088;2022-07-29T05:32:42;16.50;99.90
11736;DHT22;5924;51.398;7.088;2022-07-29T05:35:08;16.50;99.90
11736;DHT22;5924;51.398;7.088;2022-07-29T05:37:33;16.50;1.00
11736;DHT22;5924;51.398;7.088;2022-07-29T05:39:59;16.50;1.00
11736;DHT22;5924;51.398;7.088;2022-07-29T05:42:26;16.50;1.00
11736;DHT22;5924;51.398;7.088;2022-07-29T05:44:52;16.60;1.00
11736;DHT22;5924;51.398;7.088;2022-07-29T05:47:18;16.60;1.00
11736;DHT22;5924;51.398;7.088;2022-07-29T05:49:43;16.70;1.00
11736;DHT22;5924;51.398;7.088;2022-07-29T05:52:09;16.80;1.00
11736;DHT22;5924;51.398;7.088;2022-07-29T05:54:35;16.80;1.00
11736;DHT22;5924;51.398;7.088;2022-07-29T05:57:03;16.90;99.90
11736;DHT22;5924;51.398;7.088;2022-07-29T05:59:28;16.90;1.00
11736;DHT22;5924;51.398;7.088;2022-07-29T06:01:54;17.00;99.90
11736;DHT22;5924;51.398;7.088;2022-07-29T06:04:20;17.00;99.90
11736;DHT22;5924;51.398;7.088;2022-07-29T06:06:46;17.00;99.90
11736;DHT22;5924;51.398;7.088;2022-07-29T06:09:11;17.00;99.90
11736;DHT22;5924;51.398;7.088;2022-07-29T06:11:37;17.10;99.90
11736;DHT22;5924;51.398;7.088;2022-07-29T06:14:02;17.10;1.00
11736;DHT22;5924;51.398;7.088;2022-07-29T06:16:29;17.10;1.00
11736;DHT22;5924;51.398;7.088;2022-07-29T06:18:54;17.10;1.00
11736;DHT22;5924;51.398;7.088;2022-07-29T06:21:20;17.10;1.00
11736;DHT22;5924;51.398;7.088;2022-07-29T06:23:45;17.10;1.00
11736;DHT22;5924;51.398;7.088;2022-07-29T06:26:11;17.10;47.20
11736;DHT22;5924;51.398;7.088;2022-07-29T06:28:37;17.10;27.10
11736;DHT22;5924;51.398;7.088;2022-07-29T06:31:02;17.10;99.90
11736;DHT22;5924;51.398;7.088;2022-07-29T06:33:28;17.10;92.00
11736;DHT22;5924;51.398;7.088;2022-07-29T06:35:54;17.10;1.00
11736;DHT22;5924;51.398;7.088;2022-07-29T06:38:20;17.20;1.00
11736;DHT22;5924;51.398;7.088;2022-07-29T06:40:46;17.30;1.00
11736;DHT22;5924;51.398;7.088;2022-07-29T06:43:40;17.30;1.00
11736;DHT22;5924;51.398;7.088;2022-07-29T06:46:14;17.50;1.00
11736;DHT22;5924;51.398;7.088;2022-07-29T06:48:41;17.60;99.90
11736;DHT22;5924;51.398;7.088;2022-07-29T06:51:11;17.80;99.90
11736;DHT22;5924;51.398;7.088;2022-07-29T06:53:38;17.90;99.90
11736;DHT22;5924;51.398;7.088;2022-07-29T06:56:05;18.10;1.00
11736;DHT22;5924;51.398;7.088;2022-07-29T06:58:31;18.30;1.00
11736;DHT22;5924;51.398;7.088;2022-07-29T07:01:00;18.40;1.00
11736;DHT22;5924;51.398;7.088;2022-07-29T07:03:25;18.60;1.00
11736;DHT22;5924;51.398;7.088;2022-07-29T07:05:53;18.80;1.00
11736;DHT22;5924;51.398;7.088;2022-07-29T07:08:19;19.00;99.90
11736;DHT22;5924;51.398;7.088;2022-07-29T07:10:45;19.10;1.00
11736;DHT22;5924;51.398;7.088;2022-07-29T07:13:11;19.20;22.00
11736;DHT22;5924;51.398;7.088;2022-07-29T07:15:37;19.20;99.90
11736;DHT22;5924;51.398;7.088;2022-07-29T07:18:04;19.20;1.00
11736;DHT22;5924;51.398;7.088;2022-07-29T07:20:31;19.20;1.00
11736;DHT22;5924;51.398;7.088;2022-07-29T07:22:57;19.20;99.90
11736;DHT22;5924;51.398;7.088;2022-07-29T07:25:23;19.00;99.90
11736;DHT22;5924;51.398;7.088;2022-07-29T07:27:48;19.00;1.00
11736;DHT22;5924;51.398;7.088;2022-07-29T07:30:14;19.00;1.00
11736;DHT22;5924;51.398;7.088;2022-07-29T07:32:40;18.90;1.00
11736;DHT22;5924;51.398;7.088;2022-07-29T07:35:07;18.90;99.90
11736;DHT22;5924;51.398;7.088;2022-07-29T07:37:33;18.80;1.00
11736;DHT22;5924;51.398;7.088;2022-07-29T07:39:59;18.80;97.10
11736;DHT22;5924;51.398;7.088;2022-07-29T07:42:25;18.80;1.00
11736;DHT22;5924;51.398;7.088;2022-07-29T07:44:50;18.90;1.00
11736;DHT22;5924;51.398;7.088;2022-07-29T07:47:16;18.90;1.00
11736;DHT22;5924;51.398;7.088;2022-07-29T07:49:46;18.90;46.00
11736;DHT22;5924;51.398;7.088;2022-07-29T07:52:13;18.80;1.00
11736;DHT22;5924;51.398;7.088;2022-07-29T07:54:39;18.80;1.00
11736;DHT22;5924;51.398;7.088;2022-07-29T07:57:04;19.00;99.90
11736;DHT22;5924;51.398;7.088;2022-07-29T07:59:30;19.00;99.90
11736;DHT22;5924;51.398;7.088;2022-07-29T08:01:55;19.10;1.00
11736;DHT22;5924;51.398;7.088;2022-07-29T08:04:21;19.20;99.90
11736;DHT22;5924;51.398;7.088;2022-07-29T08:06:47;19.30;99.90
11736;DHT22;5924;51.398;7.088;2022-07-29T08:09:15;19.40;1.00
11736;DHT22;5924;51.398;7.088;2022-07-29T08:11:40;19.50;1.00
11736;DHT22;5924;51.398;7.088;2022-07-29T08:14:06;19.40;99.90
11736;DHT22;5924;51.398;7.088;2022-07-29T08:16:31;19.50;99.90
11736;DHT22;5924;51.398;7.088;2022-07-29T08:18:57;19.40;99.90
11736;DHT22;5924;51.398;7.088;2022-07-29T08:21:24;19.40;1.00
11736;DHT22;5924;51.398;7.088;2022-07-29T08:23:50;18.70;1.00
11736;DHT22;5924;51.398;7.088;2022-07-29T08:26:19;19.10;1.00
11736;DHT22;5924;51.398;7.088;2022-07-29T08:28:46;19.00;98.30
11736;DHT22;5924;51.398;7.088;2022-07-29T08:31:15;18.90;1.00
11736;DHT22;5924;51.398;7.088;2022-07-29T08:33:41;18.80;99.90
11736;DHT22;5924;51.398;7.088;2022-07-29T08:36:07;18.60;1.00
11736;DHT22;5924;51.398;7.088;2022-07-29T08:38:33;18.60;1.00
11736;DHT22;5924;51.398;7.088;2022-07-29T08:41:02;18.50;99.90
11736;DHT22;5924;51.398;7.088;2022-07-29T08:43:28;18.50;99.90
11736;DHT22;5924;51.398;7.088;2022-07-29T08:45:54;18.40;99.90
11736;DHT22;5924;51.398;7.088;2022-07-29T08:48:22;18.40;1.00
11736;DHT22;5924;51.398;7.088;2022-07-29T08:50:55;18.50;1.00
11736;DHT22;5924;51.398;7.088;2022-07-29T08:53:22;18.40;99.90
11736;DHT22;5924;51.398;7.088;2022-07-29T08:55:49;18.50;1.00
11736;DHT22;5924;51.398;7.088;2022-07-29T08:58:16;18.40;1.00
11736;DHT22;5924;51.398;7.088;2022-07-29T09:00:52;18.40;1.00
11736;DHT22;5924;51.398;7.088;2022-07-29T09:03:20;18.40;1.00
11736;DHT22;5924;51.398;7.088;2022-07-29T09:05:46;18.30;99.90
11736;DHT22;5924;51.398;7.088;2022-07-29T09:08:13;18.30;99.90
11736;DHT22;5924;51.398;7.088;2022-07-29T09:10:39;18.30;99.90
11736;DHT22;5924;51.398;7.088;2022-07-29T09:13:05;18.20;99.90
11736;DHT22;5924;51.398;7.088;2022-07-29T09:15:31;18.10;99.90
11736;DHT22;5924;51.398;7.088;2022-07-29T09:17:57;18.20;99.90
11736;DHT22;5924;51.398;7.088;2022-07-29T09:20:24;18.20;99.90
11736;DHT22;5924;51.398;7.088;2022-07-29T09:22:51;18.20;99.90
11736;DHT22;5924;51.398;7.088;2022-07-29T09:25:35;18.20;99.90
11736;DHT22;5924;51.398;7.088;2022-07-29T09:28:14;18.20;99.90
11736;DHT22;5924;51.398;7.088;2022-07-29T09:30:52;18.20;99.90
11736;DHT22;5924;51.398;7.088;2022-07-29T09:33:18;18.20;1.00
11736;DHT22;5924;51.398;7.088;2022-07-29T09:35:44;18.20;1.00
11736;DHT22;5924;51.398;7.088;2022-07-29T09:38:13;18.20;1.00
11736;DHT22;5924;51.398;7.088;2022-07-29T09:40:40;18.20;1.00
11736;DHT22;5924;51.398;7.088;2022-07-29T09:43:12;18.30;1.00
11736;DHT22;5924;51.398;7.088;2022-07-29T09:45:39;18.50;1.00
11736;DHT22;5924;51.398;7.088;2022-07-29T09:48:22;18.60;1.00
11736;DHT22;5924;51.398;7.088;2022-07-29T09:50:48;18.70;1.00
11736;DHT22;5924;51.398;7.088;2022-07-29T09:53:50;18.70;99.90
11736;DHT22;5924;51.398;7.088;2022-07-29T09:56:16;18.80;99.90
11736;DHT22;5924;51.398;7.088;2022-07-29T09:58:42;18.50;99.90
11736;DHT22;5924;51.398;7.088;2022-07-29T10:01:08;18.60;99.90
11736;DHT22;5924;51.398;7.088;2022-07-29T10:03:50;18.60;99.90
11736;DHT22;5924;51.398;7.088;2022-07-29T10:06:17;18.70;99.90
11736;DHT22;5924;51.398;7.088;2022-07-29T10:08:42;18.80;99.90
11736;DHT22;5924;51.398;7.088;2022-07-29T10:11:11;19.00;99.90
11736;DHT22;5924;51.398;7.088;2022-07-29T10:13:38;19.30;99.90
11736;DHT22;5924;51.398;7.088;2022-07-29T10:16:03;19.50;99.90
11736;DHT22;5924;51.398;7.088;2022-07-29T10:18:30;19.60;1.00
11736;DHT22;5924;51.398;7.088;2022-07-29T10:20:55;19.50;1.00
11736;DHT22;5924;51.398;7.088;2022-07-29T10:23:22;19.50;1.00
11736;DHT22;5924;51.398;7.088;2022-07-29T10:25:49;19.60;1.00
11736;DHT22;5924;51.398;7.088;2022-07-29T10:28:15;19.50;99.90
11736;DHT22;5924;51.398;7.088;2022-07-29T10:30:41;19.50;99.90
11736;DHT22;5924;51.398;7.088;2022-07-29T10:33:21;19.40;99.90
11736;DHT22;5924;51.398;7.088;2022-07-29T10:42:07;19.10;1.00
11736;DHT22;5924;51.398;7.088;2022-07-29T10:44:34;19.10;1.00
11736;DHT22;5924;51.398;7.088;2022-07-29T10:47:00;19.20;1.00
11736;DHT22;5924;51.398;7.088;2022-07-29T10:49:27;19.30;1.00
11736;DHT22;5924;51.398;7.088;2022-07-29T10:57:28;19.50;1.00
11736;DHT22;5924;51.398;7.088;2022-07-29T11:05:17;20.00;99.90
11736;DHT22;5924;51.398;7.088;2022-07-29T11:10:38;20.60;26.60
11736;DHT22;5924;51.398;7.088;2022-07-29T11:13:04;20.90;94.40
11736;DHT22;5924;51.398;7.088;2022-07-29T11:15:56;21.20;1.00
11736;DHT22;5924;51.398;7.088;2022-07-29T11:18:23;21.60;1.00
11736;DHT22;5924;51.398;7.088;2022-07-29T11:20:50;21.70;1.00
11736;DHT22;5924;51.398;7.088;2022-07-29T11:23:32;21.80;99.90
11736;DHT22;5924;51.398;7.088;2022-07-29T11:26:20;22.70;99.90
11736;DHT22;5924;51.398;7.088;2022-07-29T11:31:16;21.80;1.00
11736;DHT22;5924;51.398;7.088;2022-07-29T11:33:45;21.90;1.00
11736;DHT22;5924;51.398;7.088;2022-07-29T11:36:14;22.00;99.00
11736;DHT22;5924;51.398;7.088;2022-07-29T11:38:40;22.10;1.00
11736;DHT22;5924;51.398;7.088;2022-07-29T11:41:19;22.20;1.00
11736;DHT22;5924;51.398;7.088;2022-07-29T11:43:58;22.20;1.00
11736;DHT22;5924;51.398;7.088;2022-07-29T11:46:44;22.10;99.90
11736;DHT22;5924;51.398;7.088;2022-07-29T11:49:11;22.20;1.00
11736;DHT22;5924;51.398;7.088;2022-07-29T11:51:37;22.50;1.00
11736;DHT22;5924;51.398;7.088;2022-07-29T11:54:04;23.00;99.90
11736;DHT22;5924;51.398;7.088;2022-07-29T11:56:31;23.50;99.90
11736;DHT22;5924;51.398;7.088;2022-07-29T11:59:15;23.60;99.90
11736;DHT22;5924;51.398;7.088;2022-07-29T12:01:55;23.50;99.90
11736;DHT22;5924;51.398;7.088;2022-07-29T12:04:20;23.30;99.90
11736;DHT22;5924;51.398;7.088;2022-07-29T12:06:53;23.30;99.90
11736;DHT22;5924;51.398;7.088;2022-07-29T12:09:20;23.20;99.90
11736;DHT22;5924;51.398;7.088;2022-07-29T12:11:46;23.40;99.90
11736;DHT22;5924;51.398;7.088;2022-07-29T12:14:26;23.60;99.90
11736;DHT22;5924;51.398;7.088;2022-07-29T12:16:53;23.80;99.90
11736;DHT22;5924;51.398;7.088;2022-07-29T12:19:19;23.90;99.90
11736;DHT22;5924;51.398;7.088;2022-07-29T12:21:52;24.30;99.90
11736;DHT22;5924;51.398;7.088;2022-07-29T12:24:18;24.70;1.00
11736;DHT22;5924;51.398;7.088;2022-07-29T12:26:57;25.20;99.90
11736;DHT22;5924;51.398;7.088;2022-07-29T12:29:24;25.70;99.90
11736;DHT22;5924;51.398;7.088;2022-07-29T12:31:53;25.80;1.00
11736;DHT22;5924;51.398;7.088;2022-07-29T12:34:21;25.80;1.00
11736;DHT22;5924;51.398;7.088;2022-07-29T12:36:48;25.70;99.90
11736;DHT22;5924;51.398;7.088;2022-07-29T12:39:16;25.40;1.00
11736;DHT22;5924;51.398;7.088;2022-07-29T12:41:41;25.20;99.90
11736;DHT22;5924;51.398;7.088;2022-07-29T12:44:07;25.20;52.90
11736;DHT22;5924;51.398;7.088;2022-07-29T12:46:33;25.30;1.00
11736;DHT22;5924;51.398;7.088;2022-07-29T12:48:58;25.40;1.00
11736;DHT22;5924;51.398;7.088;2022-07-29T12:51:37;25.00;1.00
11736;DHT22;5924;51.398;7.088;2022-07-29T12:54:09;24.80;1.00
11736;DHT22;5924;51.398;7.088;2022-07-29T12:56:37;24.50;1.00
11736;DHT22;5924;51.398;7.088;2022-07-29T12:59:17;24.10;1.00
11736;DHT22;5924;51.398;7.088;2022-07-29T13:01:44;23.90;1.00
11736;DHT22;5924;51.398;7.088;2022-07-29T13:04:10;23.80;1.00
11736;DHT22;5924;51.398;7.088;2022-07-29T13:06:42;23.90;1.00
11736;DHT22;5924;51.398;7.088;2022-07-29T13:11:52;24.10;2.00
11736;DHT22;5924;51.398;7.088;2022-07-29T13:14:37;24.60;1.00
11736;DHT22;5924;51.398;7.088;2022-07-29T13:17:07;24.70;1.00
11736;DHT22;5924;51.398;7.088;2022-07-29T13:19:48;24.80;1.00
11736;DHT22;5924;51.398;7.088;2022-07-29T13:22:17;25.20;7.90
11736;DHT22;5924;51.398;7.088;2022-07-29T13:25:00;25.30;4.10
11736;DHT22;5924;51.398;7.088;2022-07-29T13:27:30;25.30;9.20
11736;DHT22;5924;51.398;7.088;2022-07-29T13:29:59;25.80;11.00
11736;DHT22;5924;51.398;7.088;2022-07-29T13:32:26;26.90;11.60
11736;DHT22;5924;51.398;7.088;2022-07-29T13:34:52;27.70;58.60
11736;DHT22;5924;51.398;7.088;2022-07-29T13:37:19;28.00;95.70
11736;DHT22;5924;51.398;7.088;2022-07-29T13:39:45;27.50;98.60
11736;DHT22;5924;51.398;7.088;2022-07-29T13:42:11;27.00;97.90
11736;DHT22;5924;51.398;7.088;2022-07-29T13:44:42;26.50;98.30
11736;DHT22;5924;51.398;7.088;2022-07-29T13:47:08;26.30;99.90
11736;DHT22;5924;51.398;7.088;2022-07-29T13:49:34;26.90;99.00
11736;DHT22;5924;51.398;7.088;2022-07-29T13:52:00;27.70;98.10
11736;DHT22;5924;51.398;7.088;2022-07-29T13:54:26;29.00;96.70
11736;DHT22;5924;51.398;7.088;2022-07-29T13:56:52;29.90;94.80
11736;DHT22;5924;51.398;7.088;2022-07-29T13:59:18;31.80;93.10
11736;DHT22;5924;51.398;7.088;2022-07-29T14:01:44;31.00;89.80
11736;DHT22;5924;51.398;7.088;2022-07-29T14:04:10;31.60;86.00
11736;DHT22;5924;51.398;7.088;2022-07-29T14:06:36;32.40;86.10
11736;DHT22;5924;51.398;7.088;2022-07-29T14:09:02;32.60;79.60
11736;DHT22;5924;51.398;7.088;2022-07-29T14:11:31;32.20;75.60
11736;DHT22;5924;51.398;7.088;2022-07-29T14:13:57;31.70;75.80
11736;DHT22;5924;51.398;7.088;2022-07-29T14:16:23;31.20;78.20
11736;DHT22;5924;51.398;7.088;2022-07-29T14:18:48;31.90;77.70
11736;DHT22;5924;51.398;7.088;2022-07-29T14:21:14;33.30;71.70
11736;DHT22;5924;51.398;7.088;2022-07-29T14:23:40;33.80;68.90
11736;DHT22;5924;51.398;7.088;2022-07-29T14:26:06;33.50;67.90
11736;DHT22;5924;51.398;7.088;2022-07-29T14:28:32;33.50;69.50
11736;DHT22;5924;51.398;7.088;2022-07-29T14:30:57;33.80;66.70
11736;DHT22;5924;51.398;7.088;2022-07-29T14:33:23;34.00;66.10
11736;DHT22;5924;51.398;7.088;2022-07-29T14:35:49;34.80;63.50
11736;DHT22;5924;51.398;7.088;2022-07-29T14:38:14;35.10;61.20
11736;DHT22;5924;51.398;7.088;2022-07-29T14:40:40;35.60;58.80
11736;DHT22;5924;51.398;7.088;2022-07-29T14:43:06;35.10;58.40
11736;DHT22;5924;51.398;7.088;2022-07-29T14:45:31;35.70;59.30
11736;DHT22;5924;51.398;7.088;2022-07-29T14:47:57;36.10;57.30
11736;DHT22;5924;51.398;7.088;2022-07-29T14:50:23;36.60;56.10
11736;DHT22;5924;51.398;7.088;2022-07-29T14:52:48;36.40;54.80
11736;DHT22;5924;51.398;7.088;2022-07-29T14:55:14;36.20;54.60
11736;DHT22;5924;51.398;7.088;2022-07-29T14:57:40;36.30;54.60
11736;DHT22;5924;51.398;7.088;2022-07-29T15:00:06;36.50;54.40
11736;DHT22;5924;51.398;7.088;2022-07-29T15:02:33;35.90;54.70
11736;DHT22;5924;51.398;7.088;2022-07-29T15:04:58;35.60;56.80
11736;DHT22;5924;51.398;7.088;2022-07-29T15:07:24;35.90;56.00
11736;DHT22;5924;51.398;7.088;2022-07-29T15:09:50;36.00;55.50
11736;DHT22;5924;51.398;7.088;2022-07-29T15:12:15;35.90;54.30
11736;DHT22;5924;51.398;7.088;2022-07-29T15:14:41;35.80;56.10
11736;DHT22;5924;51.398;7.088;2022-07-29T15:17:07;35.80;55.00
11736;DHT22;5924;51.398;7.088;2022-07-29T15:19:33;36.20;54.70
11736;DHT22;5924;51.398;7.088;2022-07-29T15:21:58;36.00;54.60
11736;DHT22;5924;51.398;7.088;2022-07-29T15:24:24;35.20;54.10
11736;DHT22;5924;51.398;7.088;2022-07-29T15:26:50;34.60;56.80
11736;DHT22;5924;51.398;7.088;2022-07-29T15:29:15;34.80;57.40
11736;DHT22;5924;51.398;7.088;2022-07-29T15:31:41;34.70;56.00
11736;DHT22;5924;51.398;7.088;2022-07-29T15:34:07;34.00;57.60
11736;DHT22;5924;51.398;7.088;2022-07-29T15:36:32;34.30;59.40
11736;DHT22;5924;51.398;7.088;2022-07-29T15:38:58;35.10;58.10
11736;DHT22;5924;51.398;7.088;2022-07-29T15:41:24;34.80;56.60
11736;DHT22;5924;51.398;7.088;2022-07-29T15:43:49;33.50;57.30
11736;DHT22;5924;51.398;7.088;2022-07-29T15:46:18;32.30;59.80
11736;DHT22;5924;51.398;7.088;2022-07-29T15:49:03;31.70;61.70
11736;DHT22;5924;51.398;7.088;2022-07-29T15:51:29;31.30;63.10
11736;DHT22;5924;51.398;7.088;2022-07-29T15:53:55;31.50;64.30
11736;DHT22;5924;51.398;7.088;2022-07-29T15:56:22;32.10;62.40
11736;DHT22;5924;51.398;7.088;2022-07-29T15:58:48;32.20;61.90
11736;DHT22;5924;51.398;7.088;2022-07-29T16:01:13;32.40;62.10
11736;DHT22;5924;51.398;7.088;2022-07-29T16:03:39;33.10;62.00
11736;DHT22;5924;51.398;7.088;2022-07-29T16:06:05;34.60;61.40
11736;DHT22;5924;51.398;7.088;2022-07-29T16:08:30;35.80;57.40
11736;DHT22;5924;51.398;7.088;2022-07-29T16:10:56;36.00;55.70
11736;DHT22;5924;51.398;7.088;2022-07-29T16:13:22;35.60;55.00
11736;DHT22;5924;51.398;7.088;2022-07-29T16:15:50;35.60;56.20
11736;DHT22;5924;51.398;7.088;2022-07-29T16:18:16;35.70;55.10
11736;DHT22;5924;51.398;7.088;2022-07-29T16:20:42;35.80;54.90
11736;DHT22;5924;51.398;7.088;2022-07-29T16:23:07;35.70;55.10
11736;DHT22;5924;51.398;7.088;2022-07-29T16:25:40;35.30;55.70
11736;DHT22;5924;51.398;7.088;2022-07-29T16:28:06;34.20;56.10
11736;DHT22;5924;51.398;7.088;2022-07-29T16:30:33;32.70;58.60
11736;DHT22;5924;51.398;7.088;2022-07-29T16:32:59;31.20;62.20